createdAt,value
2023-04-12T00:00:18.640Z,26.31
2023-04-12T00:01:18.660Z,26.32
2023-04-12T00:02:18.800Z,26.28
2023-04-12T00:03:18.857Z,26.28
2023-04-12T00:04:18.819Z,26.30
2023-04-12T00:05:18.885Z,26.30
2023-04-12T00:06:18.790Z,26.29
2023-04-12T00:07:18.823Z,26.28
2023-04-12T00:08:18.855Z,26.27
2023-04-12T00:09:18.899Z,26.27
2023-04-12T00:10:18.927Z,26.31
2023-04-12T00:11:18.956Z,26.28
2023-04-12T00:12:18.988Z,26.25
2023-04-12T00:13:19.051Z,26.31
2023-04-12T00:14:19.057Z,26.31
2023-04-12T00:15:19.125Z,26.25
2023-04-12T00:16:19.172Z,26.28
2023-04-12T00:17:19.229Z,26.24
2023-04-12T00:18:19.231Z,26.27
2023-04-12T00:19:19.634Z,26.25
2023-04-12T00:20:19.320Z,26.22
2023-04-12T00:21:19.438Z,26.28
2023-04-12T00:22:19.410Z,26.25
2023-04-12T00:23:19.452Z,26.27
2023-04-12T00:24:19.500Z,26.28
2023-04-12T00:25:19.561Z,26.27
2023-04-12T00:26:19.605Z,26.29
2023-04-12T00:27:19.662Z,26.29
2023-04-12T00:28:19.718Z,26.28
2023-04-12T00:29:19.793Z,26.24
2023-04-12T00:30:19.814Z,26.23
2023-04-12T00:31:19.964Z,26.28
2023-04-12T00:32:20.021Z,26.28
2023-04-12T00:33:20.019Z,26.27
2023-04-12T00:34:19.996Z,26.27
2023-04-12T00:35:20.053Z,26.23
2023-04-12T00:36:20.223Z,26.21
2023-04-12T00:37:20.160Z,26.28
2023-04-12T00:38:20.219Z,26.25
2023-04-12T00:39:20.269Z,26.25
2023-04-12T00:40:20.336Z,26.21
2023-04-12T00:41:20.378Z,26.24
2023-04-12T00:42:20.433Z,26.19
2023-04-12T00:43:20.494Z,26.24
2023-04-12T00:44:20.527Z,26.25
2023-04-12T00:45:20.598Z,26.25
2023-04-12T00:46:20.671Z,26.17
2023-04-12T00:47:20.683Z,26.24
2023-04-12T00:48:20.705Z,26.17
2023-04-12T00:49:20.761Z,26.22
2023-04-12T00:50:20.806Z,26.18
2023-04-12T00:51:20.840Z,26.21
2023-04-12T00:52:20.892Z,26.18
2023-04-12T00:53:20.951Z,26.15
2023-04-12T00:54:20.990Z,26.24
2023-04-12T00:55:21.048Z,26.22
2023-04-12T00:56:21.099Z,26.17
2023-04-12T00:57:21.154Z,26.21
2023-04-12T00:58:21.186Z,26.14
2023-04-12T00:59:21.236Z,26.24
2023-04-12T01:00:21.282Z,26.18
2023-04-12T01:01:21.393Z,26.18
2023-04-12T01:02:21.543Z,26.14
2023-04-12T01:03:21.476Z,26.15
2023-04-12T01:04:21.455Z,26.22
2023-04-12T01:05:21.522Z,26.17
2023-04-12T01:06:21.553Z,26.17
2023-04-12T01:07:21.602Z,26.21
2023-04-12T01:08:21.654Z,26.11
2023-04-12T01:09:21.713Z,26.15
2023-04-12T01:10:21.755Z,26.13
2023-04-12T01:11:20.807Z,26.14
2023-04-12T01:12:21.863Z,26.14
2023-04-12T01:13:21.906Z,26.14
2023-04-12T01:14:21.951Z,26.14
2023-04-12T01:15:22.015Z,26.14
2023-04-12T01:16:22.094Z,26.10
2023-04-12T01:17:22.159Z,26.14
2023-04-12T01:18:22.191Z,26.11
2023-04-12T01:19:22.185Z,26.11
2023-04-12T01:20:22.238Z,26.13
2023-04-12T01:21:22.276Z,26.11
2023-04-12T01:22:22.323Z,26.08
2023-04-12T01:23:22.376Z,26.10
2023-04-12T01:24:22.422Z,26.13
2023-04-12T01:25:22.470Z,26.08
2023-04-12T01:26:22.635Z,26.13
2023-04-12T01:27:22.556Z,26.08
2023-04-12T01:28:22.612Z,26.10
2023-04-12T01:29:22.636Z,26.07
2023-04-12T01:30:22.695Z,26.06
2023-04-12T01:31:22.776Z,26.08
2023-04-12T01:32:22.820Z,26.11
2023-04-12T01:33:22.984Z,26.06
2023-04-12T01:34:23.605Z,26.10
2023-04-12T01:35:22.990Z,26.07
2023-04-12T01:36:22.996Z,26.06
2023-04-12T01:37:23.054Z,26.08
2023-04-12T01:38:23.106Z,26.08
2023-04-12T01:39:23.158Z,26.07
2023-04-12T01:40:23.204Z,26.07
2023-04-12T01:41:23.262Z,26.07
2023-04-12T01:42:23.307Z,26.10
2023-04-12T01:43:23.362Z,26.08
2023-04-12T01:44:23.418Z,26.04
2023-04-12T01:45:23.491Z,26.01
2023-04-12T01:46:23.519Z,26.06
2023-04-12T01:47:23.618Z,26.07
2023-04-12T01:48:23.626Z,26.06
2023-04-12T01:49:23.691Z,26.06
2023-04-12T01:50:23.733Z,26.03
2023-04-12T01:51:23.793Z,26.04
2023-04-12T01:52:23.834Z,26.03
2023-04-12T01:53:23.888Z,25.99
2023-04-12T01:54:23.952Z,26.04
2023-04-12T01:55:24.008Z,26.04
2023-04-12T01:56:24.055Z,26.03
2023-04-12T01:57:24.096Z,26.03
2023-04-12T01:58:24.151Z,25.99
2023-04-12T01:59:24.203Z,25.99
2023-04-12T02:00:24.255Z,25.98
2023-04-12T02:01:24.365Z,25.99
2023-04-12T02:02:24.503Z,26.01
2023-04-12T02:03:24.603Z,25.98
2023-04-12T02:04:24.443Z,26.02
2023-04-12T02:05:24.496Z,26.04
2023-04-12T02:06:24.528Z,26.04
2023-04-12T02:07:24.575Z,26.00
2023-04-12T02:08:24.636Z,25.98
2023-04-12T02:09:24.702Z,25.98
2023-04-12T02:10:24.733Z,26.03
2023-04-12T02:11:24.791Z,25.96
2023-04-12T02:12:24.844Z,26.00
2023-04-12T02:13:24.889Z,26.00
2023-04-12T02:14:24.948Z,25.99
2023-04-12T02:15:25.007Z,26.02
2023-04-12T02:16:25.118Z,26.03
2023-04-12T02:17:25.103Z,26.00
2023-04-12T02:18:25.153Z,26.00
2023-04-12T02:19:25.204Z,25.98
2023-04-12T02:20:25.247Z,25.96
2023-04-12T02:21:25.321Z,25.92
2023-04-12T02:22:25.348Z,25.92
2023-04-12T02:23:25.388Z,25.97
2023-04-12T02:24:25.435Z,25.96
2023-04-12T02:25:25.519Z,25.96
2023-04-12T02:26:25.543Z,25.96
2023-04-12T02:27:25.597Z,25.97
2023-04-12T02:28:25.645Z,25.97
2023-04-12T02:29:25.689Z,25.97
2023-04-12T02:30:25.830Z,25.96
2023-04-12T02:31:25.795Z,25.92
2023-04-12T02:32:25.897Z,25.92
2023-04-12T02:33:25.910Z,25.96
2023-04-12T02:34:25.941Z,25.96
2023-04-12T02:35:26.028Z,25.96
2023-04-12T02:36:26.042Z,25.93
2023-04-12T02:37:26.138Z,25.98
2023-04-12T02:38:26.152Z,25.90
2023-04-12T02:39:26.218Z,25.92
2023-04-12T02:40:26.259Z,25.92
2023-04-12T02:41:26.330Z,25.96
2023-04-12T02:42:26.364Z,25.93
2023-04-12T02:43:26.419Z,25.90
2023-04-12T02:44:26.472Z,25.90
2023-04-12T02:45:26.530Z,25.90
2023-04-12T02:46:26.613Z,25.95
2023-04-12T02:47:26.654Z,25.90
2023-04-12T02:48:26.692Z,25.86
2023-04-12T02:49:26.755Z,25.92
2023-04-12T02:50:26.803Z,25.93
2023-04-12T02:51:26.883Z,25.92
2023-04-12T02:52:26.897Z,25.89
2023-04-12T02:53:26.982Z,25.86
2023-04-12T02:54:27.011Z,25.87
2023-04-12T02:55:27.095Z,25.86
2023-04-12T02:56:27.143Z,25.90
2023-04-12T02:57:27.191Z,25.87
2023-04-12T02:58:27.249Z,25.85
2023-04-12T02:59:27.313Z,25.86
2023-04-12T03:00:27.356Z,25.92
2023-04-12T03:01:27.455Z,25.89
2023-04-12T03:02:27.536Z,25.86
2023-04-12T03:03:27.815Z,25.89
2023-04-12T03:04:27.657Z,25.92
2023-04-12T03:05:27.647Z,25.92
2023-04-12T03:06:27.726Z,25.86
2023-04-12T03:07:27.753Z,25.85
2023-04-12T03:08:27.792Z,25.82
2023-04-12T03:09:27.873Z,25.85
2023-04-12T03:10:27.974Z,25.83
2023-04-12T03:11:27.984Z,25.83
2023-04-12T03:12:28.323Z,25.87
2023-04-12T03:13:28.080Z,25.85
2023-04-12T03:14:28.128Z,25.85
2023-04-12T03:15:28.237Z,25.83
2023-04-12T03:16:28.248Z,25.85
2023-04-12T03:17:28.355Z,25.81
2023-04-12T03:18:28.364Z,25.81
2023-04-12T03:19:28.416Z,25.79
2023-04-12T03:20:29.275Z,25.86
2023-04-12T03:21:28.536Z,25.78
2023-04-12T03:22:28.593Z,25.86
2023-04-12T03:23:28.658Z,25.80
2023-04-12T03:24:28.718Z,25.79
2023-04-12T03:25:28.797Z,25.80
2023-04-12T03:26:28.830Z,25.79
2023-04-12T03:27:28.892Z,25.80
2023-04-12T03:28:28.948Z,25.80
2023-04-12T03:29:29.010Z,25.83
2023-04-12T03:30:29.063Z,25.79
2023-04-12T03:31:29.143Z,25.79
2023-04-12T03:32:29.171Z,25.80
2023-04-12T03:33:29.209Z,25.80
2023-04-12T03:34:29.259Z,25.78
2023-04-12T03:35:29.368Z,25.79
2023-04-12T03:36:29.381Z,25.78
2023-04-12T03:37:29.483Z,25.81
2023-04-12T03:38:29.493Z,25.79
2023-04-12T03:39:29.536Z,25.79
2023-04-12T03:40:29.603Z,25.80
2023-04-12T03:41:29.689Z,25.77
2023-04-12T03:42:33.540Z,25.79
2023-04-12T03:43:29.702Z,25.80
2023-04-12T03:44:29.689Z,25.75
2023-04-12T03:45:29.690Z,25.78
2023-04-12T03:46:30.349Z,25.81
2023-04-12T03:47:29.718Z,25.76
2023-04-12T03:48:29.704Z,25.75
2023-04-12T03:49:29.701Z,25.75
2023-04-12T03:50:29.767Z,25.74
2023-04-12T03:51:29.832Z,25.74
2023-04-12T03:52:29.872Z,25.76
2023-04-12T03:53:29.923Z,25.78
2023-04-12T03:54:29.958Z,25.76
2023-04-12T03:55:30.020Z,25.75
2023-04-12T03:56:30.065Z,25.73
2023-04-12T03:57:30.148Z,25.74
2023-04-12T03:58:30.178Z,25.74
2023-04-12T03:59:30.239Z,25.75
2023-04-12T04:00:30.293Z,25.79
2023-04-12T04:01:30.337Z,25.74
2023-04-12T04:02:30.582Z,25.74
2023-04-12T04:03:30.556Z,25.72
2023-04-12T04:04:30.555Z,25.74
2023-04-12T04:05:30.548Z,25.72
2023-04-12T04:06:30.612Z,25.76
2023-04-12T04:07:30.662Z,25.75
2023-04-12T04:08:30.729Z,25.71
2023-04-12T04:09:30.795Z,25.72
2023-04-12T04:10:30.828Z,25.74
2023-04-12T04:11:30.889Z,25.71
2023-04-12T04:12:31.015Z,25.66
2023-04-12T04:13:31.040Z,25.71
2023-04-12T04:14:31.088Z,25.71
2023-04-12T04:15:31.141Z,25.75
2023-04-12T04:16:31.302Z,25.74
2023-04-12T04:17:31.365Z,25.72
2023-04-12T04:18:31.291Z,25.72
2023-04-12T04:19:31.352Z,25.74
2023-04-12T04:20:31.404Z,25.72
2023-04-12T04:21:31.459Z,25.72
2023-04-12T04:22:31.539Z,25.73
2023-04-12T04:23:31.563Z,25.71
2023-04-12T04:24:31.608Z,25.68
2023-04-12T04:25:31.644Z,25.72
2023-04-12T04:26:31.690Z,25.67
2023-04-12T04:27:31.764Z,25.68
2023-04-12T04:28:32.802Z,25.71
2023-04-12T04:29:31.868Z,25.72
2023-04-12T04:30:31.800Z,25.72
2023-04-12T04:31:31.786Z,25.74
2023-04-12T04:32:32.328Z,25.69
2023-04-12T04:33:31.717Z,25.68
2023-04-12T04:34:31.714Z,25.72
2023-04-12T04:35:31.720Z,25.68
2023-04-12T04:36:31.666Z,25.68
2023-04-12T04:37:31.662Z,25.69
2023-04-12T04:38:31.652Z,25.71
2023-04-12T04:39:31.644Z,25.68
2023-04-12T04:40:31.628Z,25.66
2023-04-12T04:41:31.618Z,25.65
2023-04-12T04:42:31.614Z,25.71
2023-04-12T04:43:31.610Z,25.72
2023-04-12T04:44:31.586Z,25.66
2023-04-12T04:45:31.624Z,25.64
2023-04-12T04:46:31.576Z,25.67
2023-04-12T04:47:31.621Z,25.69
2023-04-12T04:48:31.655Z,25.67
2023-04-12T04:49:31.709Z,25.65
2023-04-12T04:50:31.743Z,25.69
2023-04-12T04:51:31.812Z,25.69
2023-04-12T04:52:31.851Z,25.69
2023-04-12T04:53:31.931Z,25.68
2023-04-12T04:54:31.958Z,25.68
2023-04-12T04:55:32.008Z,25.68
2023-04-12T04:56:32.074Z,25.68
2023-04-12T04:57:32.128Z,25.69
2023-04-12T04:58:32.193Z,25.69
2023-04-12T04:59:32.237Z,25.65
2023-04-12T05:00:32.302Z,25.68
2023-04-12T05:01:32.392Z,25.71
2023-04-12T05:02:32.435Z,25.68
2023-04-12T05:03:32.477Z,25.69
2023-04-12T05:04:32.589Z,25.74
2023-04-12T05:05:32.534Z,25.66
2023-04-12T05:06:32.562Z,25.68
2023-04-12T05:07:32.613Z,25.69
2023-04-12T05:08:32.670Z,25.72
2023-04-12T05:09:32.719Z,25.66
2023-04-12T05:10:32.777Z,25.68
2023-04-12T05:11:32.842Z,25.64
2023-04-12T05:12:32.892Z,25.64
2023-04-12T05:13:32.943Z,25.67
2023-04-12T05:14:45.492Z,25.67
2023-04-12T05:15:32.957Z,25.71
2023-04-12T05:16:32.986Z,25.68
2023-04-12T05:17:33.044Z,25.67
2023-04-12T05:18:32.917Z,25.65
2023-04-12T05:19:32.901Z,25.68
2023-04-12T05:20:32.916Z,25.68
2023-04-12T05:21:32.881Z,25.67
2023-04-12T05:22:32.874Z,25.66
2023-04-12T05:23:32.864Z,25.68
2023-04-12T05:24:32.856Z,25.69
2023-04-12T05:25:32.843Z,25.69
2023-04-12T05:26:32.831Z,25.71
2023-04-12T05:27:32.823Z,25.71
2023-04-12T05:28:32.826Z,25.65
2023-04-12T05:29:32.806Z,25.73
2023-04-12T05:30:32.809Z,25.73
2023-04-12T05:31:32.797Z,25.75
2023-04-12T05:32:32.834Z,25.73
2023-04-12T05:33:33.508Z,25.76
2023-04-12T05:34:32.761Z,25.73
2023-04-12T05:35:32.797Z,25.74
2023-04-12T05:36:32.831Z,25.75
2023-04-12T05:37:32.721Z,25.71
2023-04-12T05:38:32.837Z,25.78
2023-04-12T05:39:32.691Z,25.81
2023-04-12T05:40:32.828Z,25.77
2023-04-12T05:41:32.819Z,25.80
2023-04-12T05:42:32.850Z,25.81
2023-04-12T05:43:33.358Z,25.84
2023-04-12T05:44:33.335Z,25.82
2023-04-12T05:45:33.008Z,25.84
2023-04-12T05:46:33.130Z,25.90
2023-04-12T05:47:33.142Z,25.95
2023-04-12T05:48:33.154Z,25.97
2023-04-12T05:49:34.496Z,26.03
2023-04-12T05:50:33.274Z,25.99
2023-04-12T05:51:41.081Z,26.01
2023-04-12T05:52:33.357Z,26.02
2023-04-12T05:53:33.280Z,25.97
2023-04-12T05:54:33.379Z,26.14
2023-04-12T05:55:34.113Z,26.31
2023-04-12T05:56:33.235Z,26.40
2023-04-12T05:57:33.348Z,26.47
2023-04-12T05:58:33.239Z,26.73
2023-04-12T05:59:33.196Z,26.86
2023-04-12T06:00:33.177Z,27.00
2023-04-12T06:01:33.357Z,27.11
2023-04-12T06:03:33.390Z,27.29
2023-04-12T06:04:48.592Z,27.46
2023-04-12T06:05:33.213Z,27.67
2023-04-12T06:06:33.120Z,27.72
2023-04-12T06:07:33.123Z,27.98
2023-04-12T06:08:35.418Z,28.07
2023-04-12T06:09:33.095Z,28.32
2023-04-12T06:10:33.128Z,28.41
2023-04-12T06:11:33.056Z,28.52
2023-04-12T06:12:33.038Z,28.70
2023-04-12T06:13:33.352Z,28.69
2023-04-12T06:14:33.037Z,28.70
2023-04-12T06:15:33.024Z,28.83
2023-04-12T06:16:36.286Z,28.99
2023-04-12T06:17:33.016Z,29.16
2023-04-12T06:18:33.353Z,29.22
2023-04-12T06:19:32.978Z,29.17
2023-04-12T06:20:32.944Z,29.31
2023-04-12T06:21:33.426Z,29.45
2023-04-12T06:22:32.973Z,29.48
2023-04-12T06:23:33.349Z,29.48
2023-04-12T06:24:32.865Z,29.60
2023-04-12T06:25:32.862Z,29.73
2023-04-12T06:26:39.769Z,29.87
2023-04-12T06:27:32.843Z,29.88
2023-04-12T06:28:32.860Z,29.99
2023-04-12T06:29:32.805Z,29.99
2023-04-12T06:30:32.801Z,30.04
2023-04-12T06:31:32.827Z,30.15
2023-04-12T06:32:33.025Z,30.22
2023-04-12T06:33:32.872Z,30.26
2023-04-12T06:34:34.428Z,30.35
2023-04-12T06:35:32.731Z,30.58
2023-04-12T06:36:32.679Z,30.58
2023-04-12T06:37:33.377Z,30.53
2023-04-12T06:38:33.357Z,30.60
2023-04-12T06:39:33.067Z,30.78
2023-04-12T06:40:32.624Z,30.78
2023-04-12T06:41:32.641Z,30.92
2023-04-12T06:42:32.702Z,30.92
2023-04-12T06:43:32.859Z,31.05
2023-04-12T06:44:32.797Z,31.02
2023-04-12T06:45:32.823Z,31.05
2023-04-12T06:47:04.725Z,31.20
2023-04-12T06:47:32.994Z,31.22
2023-04-12T06:48:32.868Z,31.02
2023-04-12T06:49:32.804Z,30.91
2023-04-12T06:50:32.802Z,30.79
2023-04-12T06:51:33.770Z,30.72
2023-04-12T06:52:32.763Z,30.62
2023-04-12T06:53:32.958Z,30.64
2023-04-12T06:54:32.721Z,30.55
2023-04-12T06:55:32.702Z,30.46
2023-04-12T06:56:32.682Z,30.46
2023-04-12T06:57:32.681Z,30.35
2023-04-12T06:58:32.947Z,30.35
2023-04-12T06:59:32.664Z,30.32
2023-04-12T07:00:32.663Z,30.29
2023-04-12T07:01:32.616Z,30.27
2023-04-12T07:02:32.896Z,30.21
2023-04-12T07:03:33.022Z,30.17
2023-04-12T07:04:32.566Z,30.19
2023-04-12T07:05:32.558Z,30.16
2023-04-12T07:06:32.537Z,30.21
2023-04-12T07:07:32.521Z,30.17
2023-04-12T07:08:32.865Z,30.11
2023-04-12T07:09:32.539Z,30.09
2023-04-12T07:10:32.468Z,30.13
2023-04-12T07:11:32.469Z,30.13
2023-04-12T07:12:32.467Z,30.10
2023-04-12T07:13:32.871Z,30.11
2023-04-12T07:14:32.440Z,30.04
2023-04-12T07:15:32.415Z,30.07
2023-04-12T07:16:32.602Z,30.02
2023-04-12T07:17:32.401Z,30.06
2023-04-12T07:18:32.406Z,30.00
2023-04-12T07:19:32.394Z,29.95
2023-04-12T07:20:32.906Z,29.97
2023-04-12T07:21:32.424Z,29.96
2023-04-12T07:22:32.451Z,29.91
2023-04-12T07:23:32.457Z,29.89
2023-04-12T07:24:32.908Z,29.84
2023-04-12T07:25:32.669Z,29.86
2023-04-12T07:26:33.495Z,29.83
2023-04-12T07:27:32.557Z,29.86
2023-04-12T07:28:32.536Z,29.79
2023-04-12T07:29:32.914Z,29.75
2023-04-12T07:30:32.615Z,29.75
2023-04-12T07:31:32.573Z,29.74
2023-04-12T07:32:40.426Z,29.71
2023-04-12T07:33:32.612Z,29.72
2023-04-12T07:34:32.953Z,29.74
2023-04-12T07:35:32.610Z,29.72
2023-04-12T07:36:33.526Z,29.64
2023-04-12T07:37:32.912Z,29.77
2023-04-12T07:38:32.491Z,29.67
2023-04-12T07:39:32.946Z,29.70
2023-04-12T07:40:32.466Z,29.81
2023-04-12T07:41:32.471Z,29.83
2023-04-12T07:42:33.041Z,29.76
2023-04-12T07:43:32.438Z,29.95
2023-04-12T07:44:32.415Z,29.97
2023-04-12T07:45:32.506Z,29.98
2023-04-12T07:46:32.541Z,30.05
2023-04-12T07:47:32.495Z,30.13
2023-04-12T07:48:34.353Z,30.30
2023-04-12T07:49:32.458Z,30.29
2023-04-12T07:50:32.337Z,30.33
2023-04-12T07:51:32.318Z,30.55
2023-04-12T07:52:32.323Z,30.76
2023-04-12T07:53:33.416Z,30.64
2023-04-12T07:54:33.423Z,30.53
2023-04-12T07:55:32.280Z,30.54
2023-04-12T07:56:32.241Z,30.51
2023-04-12T07:57:34.187Z,30.45
2023-04-12T07:58:32.219Z,30.43
2023-04-12T07:59:32.191Z,30.35
2023-04-12T08:00:32.144Z,30.31
2023-04-12T08:01:34.131Z,30.31
2023-04-12T08:02:32.536Z,30.26
2023-04-12T08:03:33.193Z,30.24
2023-04-12T08:04:32.102Z,30.24
2023-04-12T08:05:33.181Z,30.21
2023-04-12T08:06:34.177Z,30.17
2023-04-12T08:07:32.098Z,30.18
2023-04-12T08:08:32.103Z,30.18
2023-04-12T08:09:32.085Z,30.14
2023-04-12T08:10:33.107Z,30.13
2023-04-12T08:11:32.082Z,30.14
2023-04-12T08:12:32.426Z,30.14
2023-04-12T08:13:33.080Z,30.08
2023-04-12T08:14:32.449Z,30.09
2023-04-12T08:15:32.479Z,30.04
2023-04-12T08:16:31.981Z,30.05
2023-04-12T08:17:32.019Z,30.08
2023-04-12T08:18:31.962Z,30.01
2023-04-12T08:19:31.949Z,30.00
2023-04-12T08:20:31.936Z,30.02
2023-04-12T08:21:31.939Z,29.99
2023-04-12T08:22:31.941Z,29.95
2023-04-12T08:23:31.907Z,29.97
2023-04-12T08:24:31.850Z,29.98
2023-04-12T08:25:31.925Z,29.94
2023-04-12T08:26:31.876Z,29.92
2023-04-12T08:27:31.917Z,29.88
2023-04-12T08:28:31.982Z,29.94
2023-04-12T08:29:31.969Z,29.92
2023-04-12T08:30:31.961Z,29.91
2023-04-12T08:31:31.997Z,29.88
2023-04-12T08:32:32.448Z,29.87
2023-04-12T08:33:31.995Z,29.84
2023-04-12T08:34:32.429Z,29.88
2023-04-12T08:35:32.106Z,29.82
2023-04-12T08:36:32.100Z,29.81
2023-04-12T08:37:32.420Z,29.78
2023-04-12T08:38:44.824Z,29.78
2023-04-12T08:39:32.559Z,29.78
2023-04-12T08:40:32.100Z,29.78
2023-04-12T08:41:32.104Z,29.72
2023-04-12T08:42:32.768Z,29.74
2023-04-12T08:43:32.094Z,29.70
2023-04-12T08:44:32.119Z,29.70
2023-04-12T08:45:32.093Z,29.68
2023-04-12T08:46:32.089Z,29.65
2023-04-12T08:47:32.434Z,29.67
2023-04-12T08:48:32.021Z,29.64
2023-04-12T08:49:32.027Z,29.66
2023-04-12T08:50:32.446Z,29.53
2023-04-12T08:51:31.990Z,29.58
2023-04-12T08:52:32.415Z,29.55
2023-04-12T08:53:32.015Z,29.53
2023-04-12T08:54:31.969Z,29.50
2023-04-12T08:55:31.957Z,29.48
2023-04-12T08:56:31.945Z,29.50
2023-04-12T08:57:32.434Z,29.49
2023-04-12T08:58:31.931Z,29.44
2023-04-12T08:59:31.920Z,29.42
2023-04-12T09:00:31.909Z,29.46
2023-04-12T09:01:32.048Z,29.42
2023-04-12T09:02:32.126Z,29.39
2023-04-12T09:03:33.546Z,29.39
2023-04-12T09:04:31.987Z,29.42
2023-04-12T09:05:31.868Z,29.31
2023-04-12T09:06:31.862Z,29.34
2023-04-12T09:07:31.835Z,29.32
2023-04-12T09:08:31.943Z,29.34
2023-04-12T09:09:31.816Z,29.25
2023-04-12T09:10:31.838Z,29.23
2023-04-12T09:11:31.819Z,29.24
2023-04-12T09:12:31.870Z,29.19
2023-04-12T09:13:31.939Z,29.16
2023-04-12T09:14:31.812Z,29.16
2023-04-12T09:15:31.931Z,29.13
2023-04-12T09:16:31.808Z,29.08
2023-04-12T09:17:31.889Z,29.12
2023-04-12T09:18:31.735Z,29.03
2023-04-12T09:19:31.950Z,29.06
2023-04-12T09:20:31.719Z,29.06
2023-04-12T09:21:31.695Z,29.06
2023-04-12T09:22:31.673Z,29.09
2023-04-12T09:23:31.922Z,28.28
2023-04-12T09:24:31.984Z,28.14
2023-04-12T09:25:31.657Z,28.33
2023-04-12T09:26:31.654Z,29.02
2023-04-12T09:27:31.689Z,29.31
2023-04-12T09:28:31.707Z,29.87
2023-04-12T09:29:31.963Z,30.00
2023-04-12T09:30:31.702Z,30.14
2023-04-12T09:31:31.855Z,30.37
2023-04-12T09:32:31.802Z,30.54
2023-04-12T09:33:31.964Z,30.73
2023-04-12T09:34:31.796Z,30.74
2023-04-12T09:35:31.796Z,30.85
2023-04-12T09:36:31.801Z,30.75
2023-04-12T09:37:31.909Z,30.66
2023-04-12T09:38:31.967Z,30.42
2023-04-12T09:39:31.997Z,30.46
2023-04-12T09:40:31.991Z,30.24
2023-04-12T09:41:32.083Z,30.19
2023-04-12T09:42:33.750Z,30.15
2023-04-12T09:43:32.454Z,30.12
2023-04-12T09:44:32.976Z,30.09
2023-04-12T09:45:32.473Z,30.29
2023-04-12T09:46:32.148Z,30.25
2023-04-12T09:47:32.159Z,30.47
2023-04-12T09:48:32.107Z,30.41
2023-04-12T09:49:32.128Z,30.30
2023-04-12T09:50:32.429Z,30.06
2023-04-12T09:51:32.477Z,30.31
2023-04-12T09:52:32.447Z,30.44
2023-04-12T09:53:32.101Z,30.65
2023-04-12T09:54:32.052Z,30.60
2023-04-12T09:55:32.832Z,30.69
2023-04-12T09:56:32.363Z,30.69
2023-04-12T09:57:33.038Z,30.70
2023-04-12T09:58:32.101Z,30.79
2023-04-12T09:59:32.471Z,30.95
2023-04-12T10:00:32.021Z,31.12
2023-04-12T10:01:33.381Z,31.14
2023-04-12T10:02:32.248Z,31.16
2023-04-12T10:03:32.069Z,31.31
2023-04-12T10:04:35.381Z,31.33
2023-04-12T10:05:31.956Z,31.43
2023-04-12T10:06:31.948Z,31.49
2023-04-12T10:07:31.908Z,31.67
2023-04-12T10:08:31.913Z,31.63
2023-04-12T10:09:31.933Z,31.79
2023-04-12T10:10:31.866Z,31.71
2023-04-12T10:11:31.857Z,31.88
2023-04-12T10:12:31.858Z,31.85
2023-04-12T10:13:31.945Z,32.00
2023-04-12T10:14:31.817Z,32.03
2023-04-12T10:15:31.793Z,32.02
2023-04-12T10:16:31.860Z,32.07
2023-04-12T10:17:31.770Z,32.16
2023-04-12T10:18:31.940Z,32.22
2023-04-12T10:19:31.716Z,32.31
2023-04-12T10:20:31.772Z,32.30
2023-04-12T10:21:31.760Z,32.45
2023-04-12T10:22:31.650Z,32.57
2023-04-12T10:23:31.956Z,32.65
2023-04-12T10:24:31.947Z,32.81
2023-04-12T10:25:31.913Z,32.64
2023-04-12T10:26:31.815Z,32.74
2023-04-12T10:27:31.863Z,32.70
2023-04-12T10:28:31.936Z,32.64
2023-04-12T10:29:31.955Z,32.63
2023-04-12T10:31:31.547Z,32.50
2023-04-12T10:32:34.892Z,32.36
2023-04-12T10:33:33.513Z,32.19
2023-04-12T10:34:32.127Z,32.13
2023-04-12T10:35:32.160Z,32.15
2023-04-12T10:36:32.122Z,31.96
2023-04-12T10:37:33.006Z,32.07
2023-04-12T10:39:31.009Z,31.97
2023-04-12T10:40:32.547Z,32.30
2023-04-12T10:41:31.948Z,32.04
2023-04-12T10:42:31.949Z,32.02
2023-04-12T10:43:31.956Z,31.62
2023-04-12T10:44:31.928Z,31.38
2023-04-12T10:45:31.878Z,31.38
2023-04-12T10:46:32.054Z,31.24
2023-04-12T10:47:31.956Z,30.98
2023-04-12T10:48:31.923Z,31.13
2023-04-12T10:49:31.805Z,31.12
2023-04-12T10:50:31.987Z,30.99
2023-04-12T10:51:31.913Z,31.04
2023-04-12T10:52:31.792Z,31.02
2023-04-12T10:53:31.733Z,30.83
2023-04-12T10:54:31.725Z,30.97
2023-04-12T10:55:31.727Z,31.12
2023-04-12T10:56:32.858Z,31.07
2023-04-12T10:57:31.724Z,31.02
2023-04-12T10:58:31.709Z,30.96
2023-04-12T10:59:44.975Z,30.82
2023-04-12T11:00:31.811Z,30.80
2023-04-12T11:01:31.878Z,30.83
2023-04-12T11:02:31.812Z,30.78
2023-04-12T11:03:32.171Z,30.70
2023-04-12T11:04:31.711Z,30.62
2023-04-12T11:05:31.666Z,30.62
2023-04-12T11:06:32.535Z,30.63
2023-04-12T11:07:31.589Z,30.62
2023-04-12T11:08:31.590Z,30.63
2023-04-12T11:09:31.540Z,30.72
2023-04-12T11:10:31.531Z,30.69
2023-04-12T11:11:31.976Z,30.64
2023-04-12T11:12:31.984Z,30.68
2023-04-12T11:13:31.490Z,30.75
2023-04-12T11:14:31.440Z,30.84
2023-04-12T11:15:31.920Z,30.19
2023-04-12T11:16:32.006Z,32.04
2023-04-12T11:17:31.454Z,31.85
2023-04-12T11:18:31.495Z,31.87
2023-04-12T11:19:31.395Z,31.67
2023-04-12T11:20:31.371Z,31.65
2023-04-12T11:21:31.376Z,31.53
2023-04-12T11:22:31.327Z,31.39
2023-04-12T11:23:31.311Z,31.35
2023-04-12T11:24:31.332Z,31.15
2023-04-12T11:25:31.289Z,30.95
2023-04-12T11:26:31.256Z,30.82
2023-04-12T11:27:31.241Z,30.64
2023-04-12T11:28:33.093Z,30.62
2023-04-12T11:29:31.196Z,30.52
2023-04-12T11:30:31.170Z,30.61
2023-04-12T11:31:31.166Z,30.69
2023-04-12T11:32:31.233Z,30.48
2023-04-12T11:33:31.179Z,30.67
2023-04-12T11:34:31.118Z,30.58
2023-04-12T11:35:31.104Z,30.29
2023-04-12T11:36:31.486Z,30.23
2023-04-12T11:37:31.092Z,30.29
2023-04-12T11:38:31.094Z,30.36
2023-04-12T11:39:32.106Z,30.29
2023-04-12T11:40:31.103Z,30.21
2023-04-12T11:41:31.487Z,30.20
2023-04-12T11:42:31.089Z,30.01
2023-04-12T11:43:31.071Z,30.01
2023-04-12T11:44:40.775Z,30.04
2023-04-12T11:45:31.061Z,30.08
2023-04-12T11:46:31.077Z,30.07
2023-04-12T11:47:31.132Z,29.98
2023-04-12T11:48:31.015Z,29.97
2023-04-12T11:49:30.985Z,29.97
2023-04-12T11:50:31.126Z,29.99
2023-04-12T11:51:32.463Z,29.90
2023-04-12T11:52:31.202Z,30.00
2023-04-12T11:53:31.219Z,29.96
2023-04-12T11:54:31.494Z,29.99
2023-04-12T11:55:31.271Z,30.20
2023-04-12T11:56:31.513Z,30.31
2023-04-12T11:57:31.343Z,30.53
2023-04-12T11:58:31.344Z,30.55
2023-04-12T11:59:31.368Z,30.49
2023-04-12T12:00:31.490Z,30.68
2023-04-12T12:01:31.439Z,30.38
2023-04-12T12:02:36.465Z,30.11
2023-04-12T12:03:31.620Z,30.27
2023-04-12T12:04:31.765Z,29.58
2023-04-12T12:05:31.788Z,29.97
2023-04-12T12:06:31.697Z,30.69
2023-04-12T12:07:31.721Z,30.77
2023-04-12T12:08:31.412Z,30.78
2023-04-12T12:09:31.410Z,31.06
2023-04-12T12:11:31.380Z,30.97
2023-04-12T12:11:39.936Z,31.04
2023-04-12T12:12:31.403Z,31.13
2023-04-12T12:13:31.494Z,31.34
2023-04-12T12:14:31.765Z,31.44
2023-04-12T12:15:31.345Z,31.38
2023-04-12T12:16:31.373Z,31.54
2023-04-12T12:17:31.323Z,31.48
2023-04-12T12:18:31.282Z,31.54
2023-04-12T12:19:31.269Z,31.68
2023-04-12T12:20:31.264Z,31.68
2023-04-12T12:21:31.251Z,31.77
2023-04-12T12:22:31.237Z,31.80
2023-04-12T12:23:31.233Z,31.85
2023-04-12T12:24:31.491Z,31.95
2023-04-12T12:25:31.184Z,32.03
2023-04-12T12:26:31.186Z,32.20
2023-04-12T12:27:31.177Z,32.26
2023-04-12T12:28:31.139Z,32.35
2023-04-12T12:29:31.114Z,32.42
2023-04-12T12:30:31.079Z,32.50
2023-04-12T12:31:31.335Z,32.64
2023-04-12T12:32:31.532Z,32.59
2023-04-12T12:33:45.131Z,32.77
2023-04-12T12:34:31.505Z,32.77
2023-04-12T12:35:31.118Z,32.94
2023-04-12T12:36:31.098Z,32.98
2023-04-12T12:37:31.076Z,33.09
2023-04-12T12:38:32.608Z,33.18
2023-04-12T12:39:31.024Z,33.18
2023-04-12T12:40:30.997Z,33.38
2023-04-12T12:41:31.002Z,33.40
2023-04-12T12:42:30.973Z,33.49
2023-04-12T12:43:30.951Z,33.56
2023-04-12T12:44:30.972Z,33.59
2023-04-12T12:45:30.933Z,33.68
2023-04-12T12:46:44.680Z,33.80
2023-04-12T12:47:30.888Z,33.88
2023-04-12T12:48:30.865Z,34.06
2023-04-12T12:49:30.812Z,34.10
2023-04-12T12:50:30.781Z,34.17
2023-04-12T12:51:30.745Z,34.33
2023-04-12T12:52:31.005Z,34.30
2023-04-12T12:53:30.694Z,34.44
2023-04-12T12:54:40.352Z,34.53
2023-04-12T12:55:31.012Z,34.53